sensor_id;sensor_type;location;lat;lon;timestamp;P1;durP1;ratioP1;P2;durP2;ratioP2
57573;SDS011;63722;48.858;21.906;2022-12-05T00:01:50;5.30;;;5.00;;
57573;SDS011;63722;48.858;21.906;2022-12-05T00:04:15;4.93;;;4.53;;
57573;SDS011;63722;48.858;21.906;2022-12-05T00:06:41;4.97;;;4.68;;
57573;SDS011;63722;48.858;21.906;2022-12-05T00:09:07;5.07;;;4.78;;
57573;SDS011;63722;48.858;21.906;2022-12-05T00:11:36;4.80;;;4.50;;
57573;SDS011;63722;48.858;21.906;2022-12-05T00:14:03;4.68;;;4.47;;
57573;SDS011;63722;48.858;21.906;2022-12-05T00:16:30;4.43;;;4.18;;
57573;SDS011;63722;48.858;21.906;2022-12-05T00:19:00;4.72;;;4.40;;
57573;SDS011;63722;48.858;21.906;2022-12-05T00:21:27;5.38;;;5.07;;
57573;SDS011;63722;48.858;21.906;2022-12-05T00:23:54;4.88;;;4.68;;
57573;SDS011;63722;48.858;21.906;2022-12-05T00:26:20;4.88;;;4.57;;
57573;SDS011;63722;48.858;21.906;2022-12-05T00:28:47;5.10;;;4.80;;
57573;SDS011;63722;48.858;21.906;2022-12-05T00:31:14;5.15;;;4.85;;
57573;SDS011;63722;48.858;21.906;2022-12-05T00:33:41;5.25;;;4.35;;
57573;SDS011;63722;48.858;21.906;2022-12-05T00:36:08;4.93;;;4.72;;
57573;SDS011;63722;48.858;21.906;2022-12-05T00:38:36;4.63;;;4.43;;
57573;SDS011;63722;48.858;21.906;2022-12-05T00:41:03;5.07;;;4.78;;
57573;SDS011;63722;48.858;21.906;2022-12-05T00:43:29;5.25;;;4.95;;
57573;SDS011;63722;48.858;21.906;2022-12-05T00:45:54;4.97;;;4.75;;
57573;SDS011;63722;48.858;21.906;2022-12-05T00:48:20;4.90;;;4.60;;
57573;SDS011;63722;48.858;21.906;2022-12-05T00:50:45;5.10;;;4.80;;
57573;SDS011;63722;48.858;21.906;2022-12-05T00:53:10;5.03;;;4.72;;
57573;SDS011;63722;48.858;21.906;2022-12-05T00:55:36;5.10;;;4.80;;
57573;SDS011;63722;48.858;21.906;2022-12-05T00:58:02;5.10;;;4.80;;
57573;SDS011;63722;48.858;21.906;2022-12-05T01:00:28;4.57;;;4.38;;
57573;SDS011;63722;48.858;21.906;2022-12-05T01:02:54;5.05;;;4.75;;
57573;SDS011;63722;48.858;21.906;2022-12-05T01:05:19;5.00;;;4.70;;
57573;SDS011;63722;48.858;21.906;2022-12-05T01:07:45;4.88;;;4.68;;
57573;SDS011;63722;48.858;21.906;2022-12-05T01:10:10;5.03;;;4.63;;
57573;SDS011;63722;48.858;21.906;2022-12-05T01:12:36;5.00;;;4.60;;
57573;SDS011;63722;48.858;21.906;2022-12-05T01:15:01;4.75;;;4.47;;
57573;SDS011;63722;48.858;21.906;2022-12-05T01:17:27;5.32;;;5.03;;
57573;SDS011;63722;48.858;21.906;2022-12-05T01:19:52;5.18;;;4.88;;
57573;SDS011;63722;48.858;21.906;2022-12-05T01:22:18;5.63;;;5.13;;
57573;SDS011;63722;48.858;21.906;2022-12-05T01:24:43;4.97;;;4.78;;
57573;SDS011;63722;48.858;21.906;2022-12-05T01:27:08;5.43;;;5.13;;
57573;SDS011;63722;48.858;21.906;2022-12-05T01:29:34;5.13;;;4.75;;
57573;SDS011;63722;48.858;21.906;2022-12-05T01:31:59;5.38;;;5.07;;
57573;SDS011;63722;48.858;21.906;2022-12-05T01:34:25;4.97;;;4.68;;
57573;SDS011;63722;48.858;21.906;2022-12-05T01:36:51;5.30;;;5.00;;
57573;SDS011;63722;48.858;21.906;2022-12-05T01:39:16;5.50;;;5.13;;
57573;SDS011;63722;48.858;21.906;2022-12-05T01:41:46;5.18;;;4.95;;
57573;SDS011;63722;48.858;21.906;2022-12-05T01:46:39;5.40;;;5.10;;
57573;SDS011;63722;48.858;21.906;2022-12-05T01:49:10;5.35;;;5.05;;
57573;SDS011;63722;48.858;21.906;2022-12-05T01:51:54;5.18;;;4.88;;
57573;SDS011;63722;48.858;21.906;2022-12-05T01:54:24;4.95;;;4.55;;
57573;SDS011;63722;48.858;21.906;2022-12-05T01:56:51;5.25;;;4.95;;
57573;SDS011;63722;48.858;21.906;2022-12-05T01:59:21;5.80;;;5.20;;
57573;SDS011;63722;48.858;21.906;2022-12-05T02:01:49;5.22;;;4.97;;
57573;SDS011;63722;48.858;21.906;2022-12-05T02:04:15;4.70;;;4.50;;
57573;SDS011;63722;48.858;21.906;2022-12-05T02:06:40;5.18;;;4.88;;
57573;SDS011;63722;48.858;21.906;2022-12-05T02:09:06;5.13;;;4.82;;
57573;SDS011;63722;48.858;21.906;2022-12-05T02:11:32;4.88;;;4.60;;
57573;SDS011;63722;48.858;21.906;2022-12-05T02:28:05;5.82;;;5.43;;
57573;SDS011;63722;48.858;21.906;2022-12-05T02:30:42;5.47;;;5.18;;
57573;SDS011;63722;48.858;21.906;2022-12-05T02:36:05;5.28;;;4.97;;
57573;SDS011;63722;48.858;21.906;2022-12-05T02:41:36;5.13;;;4.82;;
57573;SDS011;63722;48.858;21.906;2022-12-05T02:46:38;5.00;;;4.72;;
57573;SDS011;63722;48.858;21.906;2022-12-05T02:49:09;5.35;;;5.10;;
57573;SDS011;63722;48.858;21.906;2022-12-05T02:51:42;5.40;;;5.00;;
57573;SDS011;63722;48.858;21.906;2022-12-05T02:54:15;5.13;;;4.82;;
57573;SDS011;63722;48.858;21.906;2022-12-05T02:56:44;5.72;;;5.40;;
57573;SDS011;63722;48.858;21.906;2022-12-05T02:59:11;5.00;;;4.80;;
57573;SDS011;63722;48.858;21.906;2022-12-05T03:01:36;5.88;;;5.57;;
57573;SDS011;63722;48.858;21.906;2022-12-05T03:04:03;5.93;;;5.53;;
57573;SDS011;63722;48.858;21.906;2022-12-05T03:06:34;5.93;;;5.53;;
57573;SDS011;63722;48.858;21.906;2022-12-05T03:09:06;5.00;;;4.75;;
57573;SDS011;63722;48.858;21.906;2022-12-05T03:11:33;5.63;;;5.32;;
57573;SDS011;63722;48.858;21.906;2022-12-05T03:14:16;5.55;;;5.25;;
57573;SDS011;63722;48.858;21.906;2022-12-05T03:16:51;5.75;;;5.45;;
57573;SDS011;63722;48.858;21.906;2022-12-05T03:22:21;5.45;;;5.10;;
57573;SDS011;63722;48.858;21.906;2022-12-05T03:24:55;5.32;;;5.03;;
57573;SDS011;63722;48.858;21.906;2022-12-05T03:30:11;5.28;;;4.97;;
57573;SDS011;63722;48.858;21.906;2022-12-05T03:32:54;5.43;;;5.07;;
57573;SDS011;63722;48.858;21.906;2022-12-05T03:35:36;5.60;;;5.28;;
57573;SDS011;63722;48.858;21.906;2022-12-05T03:38:29;5.78;;;5.28;;
57573;SDS011;63722;48.858;21.906;2022-12-05T03:41:07;5.70;;;5.30;;
57573;SDS011;63722;48.858;21.906;2022-12-05T03:43:52;5.18;;;4.97;;
57573;SDS011;63722;48.858;21.906;2022-12-05T03:51:36;5.30;;;5.03;;
57573;SDS011;63722;48.858;21.906;2022-12-05T03:54:07;5.72;;;5.43;;
57573;SDS011;63722;48.858;21.906;2022-12-05T03:56:41;6.07;;;5.78;;
57573;SDS011;63722;48.858;21.906;2022-12-05T04:02:06;5.88;;;5.57;;
57573;SDS011;63722;48.858;21.906;2022-12-05T04:04:39;5.70;;;5.40;;
57573;SDS011;63722;48.858;21.906;2022-12-05T04:07:12;6.05;;;5.72;;
57573;SDS011;63722;48.858;21.906;2022-12-05T04:09:44;5.40;;;5.10;;
57573;SDS011;63722;48.858;21.906;2022-12-05T04:12:16;5.60;;;5.30;;
57573;SDS011;63722;48.858;21.906;2022-12-05T04:20:49;5.63;;;5.22;;
57573;SDS011;63722;48.858;21.906;2022-12-05T04:23:11;5.93;;;5.63;;
57573;SDS011;63722;48.858;21.906;2022-12-05T04:31:05;6.28;;;5.78;;
57573;SDS011;63722;48.858;21.906;2022-12-05T04:41:43;6.13;;;5.53;;
57573;SDS011;63722;48.858;21.906;2022-12-05T04:44:15;5.60;;;5.30;;
57573;SDS011;63722;48.858;21.906;2022-12-05T04:46:43;5.35;;;5.05;;
57573;SDS011;63722;48.858;21.906;2022-12-05T04:49:11;6.22;;;5.82;;
57573;SDS011;63722;48.858;21.906;2022-12-05T04:51:43;5.82;;;5.53;;
57573;SDS011;63722;48.858;21.906;2022-12-05T04:54:18;5.55;;;5.25;;
57573;SDS011;63722;48.858;21.906;2022-12-05T04:56:47;6.03;;;5.72;;
57573;SDS011;63722;48.858;21.906;2022-12-05T04:59:16;6.20;;;5.80;;
57573;SDS011;63722;48.858;21.906;2022-12-05T05:01:49;6.03;;;5.63;;
57573;SDS011;63722;48.858;21.906;2022-12-05T05:04:21;5.60;;;5.30;;
57573;SDS011;63722;48.858;21.906;2022-12-05T05:06:51;5.85;;;5.45;;
57573;SDS011;63722;48.858;21.906;2022-12-05T05:09:16;5.90;;;5.60;;
57573;SDS011;63722;48.858;21.906;2022-12-05T05:11:42;6.20;;;5.80;;
57573;SDS011;63722;48.858;21.906;2022-12-05T05:14:07;5.93;;;5.53;;
57573;SDS011;63722;48.858;21.906;2022-12-05T05:16:34;6.40;;;6.00;;
57573;SDS011;63722;48.858;21.906;2022-12-05T05:19:00;5.57;;;5.28;;
57573;SDS011;63722;48.858;21.906;2022-12-05T05:21:27;5.93;;;5.53;;
57573;SDS011;63722;48.858;21.906;2022-12-05T05:23:55;5.70;;;5.40;;
57573;SDS011;63722;48.858;21.906;2022-12-05T05:26:21;5.70;;;5.40;;
57573;SDS011;63722;48.858;21.906;2022-12-05T05:28:48;5.70;;;5.35;;
57573;SDS011;63722;48.858;21.906;2022-12-05T05:31:14;5.53;;;5.22;;
57573;SDS011;63722;48.858;21.906;2022-12-05T05:33:40;5.97;;;5.50;;
57573;SDS011;63722;48.858;21.906;2022-12-05T05:36:06;5.40;;;5.10;;
57573;SDS011;63722;48.858;21.906;2022-12-05T05:38:37;5.80;;;5.50;;
57573;SDS011;63722;48.858;21.906;2022-12-05T05:41:14;5.57;;;5.28;;
57573;SDS011;63722;48.858;21.906;2022-12-05T05:43:42;6.00;;;5.70;;
57573;SDS011;63722;48.858;21.906;2022-12-05T05:46:09;5.85;;;5.55;;
57573;SDS011;63722;48.858;21.906;2022-12-05T05:48:35;5.88;;;5.57;;
57573;SDS011;63722;48.858;21.906;2022-12-05T05:51:01;5.60;;;5.30;;
57573;SDS011;63722;48.858;21.906;2022-12-05T05:53:27;5.95;;;5.55;;
57573;SDS011;63722;48.858;21.906;2022-12-05T05:55:53;5.50;;;5.20;;
57573;SDS011;63722;48.858;21.906;2022-12-05T05:58:18;5.60;;;5.30;;
57573;SDS011;63722;48.858;21.906;2022-12-05T06:00:44;5.82;;;5.43;;
57573;SDS011;63722;48.858;21.906;2022-12-05T06:03:09;5.03;;;4.82;;
57573;SDS011;63722;48.858;21.906;2022-12-05T06:05:35;5.70;;;5.40;;
57573;SDS011;63722;48.858;21.906;2022-12-05T06:08:00;6.18;;;5.72;;
57573;SDS011;63722;48.858;21.906;2022-12-05T06:10:26;5.45;;;5.15;;
57573;SDS011;63722;48.858;21.906;2022-12-05T06:12:53;5.78;;;5.47;;
57573;SDS011;63722;48.858;21.906;2022-12-05T06:15:19;6.03;;;5.63;;
57573;SDS011;63722;48.858;21.906;2022-12-05T06:17:44;5.82;;;5.45;;
57573;SDS011;63722;48.858;21.906;2022-12-05T06:20:09;5.47;;;5.18;;
57573;SDS011;63722;48.858;21.906;2022-12-05T06:22:35;12.20;;;6.07;;
57573;SDS011;63722;48.858;21.906;2022-12-05T06:25:00;13.75;;;6.07;;
57573;SDS011;63722;48.858;21.906;2022-12-05T06:27:28;12.02;;;6.10;;
57573;SDS011;63722;48.858;21.906;2022-12-05T06:29:54;6.40;;;5.80;;
57573;SDS011;63722;48.858;21.906;2022-12-05T06:32:20;12.68;;;5.90;;
57573;SDS011;63722;48.858;21.906;2022-12-05T06:34:45;9.20;;;5.60;;
57573;SDS011;63722;48.858;21.906;2022-12-05T06:37:11;10.45;;;9.38;;
57573;SDS011;63722;48.858;21.906;2022-12-05T06:39:36;8.98;;;6.93;;
57573;SDS011;63722;48.858;21.906;2022-12-05T06:42:02;7.63;;;7.03;;
57573;SDS011;63722;48.858;21.906;2022-12-05T06:44:28;7.55;;;6.93;;
57573;SDS011;63722;48.858;21.906;2022-12-05T06:46:53;15.75;;;7.32;;
57573;SDS011;63722;48.858;21.906;2022-12-05T06:49:20;14.00;;;7.15;;
57573;SDS011;63722;48.858;21.906;2022-12-05T06:51:46;13.15;;;6.50;;
57573;SDS011;63722;48.858;21.906;2022-12-05T06:54:11;12.20;;;7.03;;
57573;SDS011;63722;48.858;21.906;2022-12-05T06:56:37;10.93;;;6.85;;
57573;SDS011;63722;48.858;21.906;2022-12-05T06:59:02;11.77;;;7.05;;
57573;SDS011;63722;48.858;21.906;2022-12-05T07:01:28;8.57;;;6.25;;
57573;SDS011;63722;48.858;21.906;2022-12-05T07:04:07;12.80;;;6.03;;
57573;SDS011;63722;48.858;21.906;2022-12-05T07:06:39;9.68;;;6.45;;
57573;SDS011;63722;48.858;21.906;2022-12-05T07:09:05;11.25;;;6.75;;
57573;SDS011;63722;48.858;21.906;2022-12-05T07:11:31;8.63;;;6.65;;
57573;SDS011;63722;48.858;21.906;2022-12-05T07:13:57;8.27;;;6.28;;
57573;SDS011;63722;48.858;21.906;2022-12-05T07:16:23;17.30;;;5.80;;
57573;SDS011;63722;48.858;21.906;2022-12-05T07:18:48;17.35;;;6.93;;
57573;SDS011;63722;48.858;21.906;2022-12-05T07:21:14;7.35;;;6.22;;
57573;SDS011;63722;48.858;21.906;2022-12-05T07:23:41;14.68;;;6.38;;
57573;SDS011;63722;48.858;21.906;2022-12-05T07:26:09;9.15;;;5.97;;
57573;SDS011;63722;48.858;21.906;2022-12-05T07:28:36;13.43;;;6.43;;
57573;SDS011;63722;48.858;21.906;2022-12-05T07:31:02;7.28;;;6.07;;
57573;SDS011;63722;48.858;21.906;2022-12-05T07:33:31;9.23;;;6.32;;
57573;SDS011;63722;48.858;21.906;2022-12-05T07:36:04;6.30;;;5.78;;
57573;SDS011;63722;48.858;21.906;2022-12-05T07:38:31;12.25;;;5.38;;
57573;SDS011;63722;48.858;21.906;2022-12-05T07:40:57;6.13;;;5.72;;
57573;SDS011;63722;48.858;21.906;2022-12-05T07:43:23;18.85;;;6.07;;
57573;SDS011;63722;48.858;21.906;2022-12-05T07:45:49;9.00;;;6.20;;
57573;SDS011;63722;48.858;21.906;2022-12-05T07:48:14;11.43;;;5.70;;
57573;SDS011;63722;48.858;21.906;2022-12-05T07:50:40;9.63;;;5.38;;
57573;SDS011;63722;48.858;21.906;2022-12-05T07:53:05;8.57;;;5.10;;
57573;SDS011;63722;48.858;21.906;2022-12-05T07:55:30;6.20;;;5.60;;
57573;SDS011;63722;48.858;21.906;2022-12-05T07:57:56;6.30;;;5.68;;
57573;SDS011;63722;48.858;21.906;2022-12-05T08:00:21;9.07;;;5.22;;
57573;SDS011;63722;48.858;21.906;2022-12-05T08:02:47;11.75;;;4.97;;
57573;SDS011;63722;48.858;21.906;2022-12-05T08:05:12;8.05;;;5.70;;
57573;SDS011;63722;48.858;21.906;2022-12-05T08:07:39;8.85;;;5.22;;
57573;SDS011;63722;48.858;21.906;2022-12-05T08:10:05;9.13;;;5.95;;
57573;SDS011;63722;48.858;21.906;2022-12-05T08:12:31;5.82;;;5.35;;
57573;SDS011;63722;48.858;21.906;2022-12-05T08:14:56;6.10;;;5.13;;
57573;SDS011;63722;48.858;21.906;2022-12-05T08:17:21;9.93;;;5.13;;
57573;SDS011;63722;48.858;21.906;2022-12-05T08:19:47;6.28;;;5.78;;
57573;SDS011;63722;48.858;21.906;2022-12-05T08:22:12;5.43;;;5.05;;
57573;SDS011;63722;48.858;21.906;2022-12-05T08:24:38;5.95;;;5.38;;
57573;SDS011;63722;48.858;21.906;2022-12-05T08:27:04;14.13;;;5.20;;
57573;SDS011;63722;48.858;21.906;2022-12-05T08:29:29;6.57;;;5.15;;
57573;SDS011;63722;48.858;21.906;2022-12-05T08:31:55;16.98;;;4.80;;
57573;SDS011;63722;48.858;21.906;2022-12-05T08:34:20;19.80;;;5.65;;
57573;SDS011;63722;48.858;21.906;2022-12-05T08:36:46;14.07;;;5.55;;
57573;SDS011;63722;48.858;21.906;2022-12-05T08:39:12;8.75;;;5.07;;
57573;SDS011;63722;48.858;21.906;2022-12-05T08:41:41;9.65;;;5.10;;
57573;SDS011;63722;48.858;21.906;2022-12-05T08:44:07;17.35;;;5.75;;
57573;SDS011;63722;48.858;21.906;2022-12-05T08:46:35;6.30;;;5.65;;
57573;SDS011;63722;48.858;21.906;2022-12-05T08:49:02;6.70;;;4.32;;
57573;SDS011;63722;48.858;21.906;2022-12-05T08:51:28;6.60;;;5.15;;
57573;SDS011;63722;48.858;21.906;2022-12-05T08:53:54;4.88;;;4.47;;
57573;SDS011;63722;48.858;21.906;2022-12-05T08:56:20;11.65;;;4.85;;
57573;SDS011;63722;48.858;21.906;2022-12-05T08:58:46;7.05;;;5.00;;
57573;SDS011;63722;48.858;21.906;2022-12-05T09:01:17;8.32;;;4.85;;
57573;SDS011;63722;48.858;21.906;2022-12-05T09:03:44;6.60;;;5.05;;
57573;SDS011;63722;48.858;21.906;2022-12-05T09:06:11;5.22;;;4.70;;
57573;SDS011;63722;48.858;21.906;2022-12-05T09:08:47;5.38;;;4.72;;
57573;SDS011;63722;48.858;21.906;2022-12-05T09:11:18;7.25;;;4.68;;
57573;SDS011;63722;48.858;21.906;2022-12-05T09:13:46;5.18;;;4.78;;
57573;SDS011;63722;48.858;21.906;2022-12-05T09:16:13;5.30;;;4.90;;
57573;SDS011;63722;48.858;21.906;2022-12-05T09:18:41;5.85;;;4.90;;
57573;SDS011;63722;48.858;21.906;2022-12-05T09:21:07;9.52;;;4.60;;
57573;SDS011;63722;48.858;21.906;2022-12-05T09:23:35;7.75;;;4.50;;
57573;SDS011;63722;48.858;21.906;2022-12-05T09:26:00;4.63;;;4.22;;
57573;SDS011;63722;48.858;21.906;2022-12-05T09:28:26;5.72;;;4.63;;
57573;SDS011;63722;48.858;21.906;2022-12-05T09:31:00;9.93;;;4.65;;
57573;SDS011;63722;48.858;21.906;2022-12-05T09:33:27;5.18;;;4.68;;
57573;SDS011;63722;48.858;21.906;2022-12-05T09:35:54;6.00;;;4.72;;
57573;SDS011;63722;48.858;21.906;2022-12-05T09:38:19;5.82;;;4.38;;
57573;SDS011;63722;48.858;21.906;2022-12-05T09:40:45;8.30;;;4.18;;
57573;SDS011;63722;48.858;21.906;2022-12-05T09:43:19;5.13;;;4.60;;
57573;SDS011;63722;48.858;21.906;2022-12-05T09:45:52;5.40;;;5.00;;
57573;SDS011;63722;48.858;21.906;2022-12-05T09:48:26;7.30;;;4.63;;
57573;SDS011;63722;48.858;21.906;2022-12-05T09:50:54;10.80;;;4.93;;
57573;SDS011;63722;48.858;21.906;2022-12-05T09:56:03;11.10;;;4.28;;
57573;SDS011;63722;48.858;21.906;2022-12-05T10:04:01;9.50;;;5.15;;
57573;SDS011;63722;48.858;21.906;2022-12-05T10:12:10;7.80;;;4.18;;
57573;SDS011;63722;48.858;21.906;2022-12-05T10:14:49;13.40;;;4.68;;
57573;SDS011;63722;48.858;21.906;2022-12-05T10:17:37;9.48;;;5.10;;
57573;SDS011;63722;48.858;21.906;2022-12-05T10:20:25;12.18;;;4.25;;
57573;SDS011;63722;48.858;21.906;2022-12-05T10:23:01;5.93;;;4.47;;
57573;SDS011;63722;48.858;21.906;2022-12-05T10:25:50;5.68;;;4.38;;
57573;SDS011;63722;48.858;21.906;2022-12-05T10:28:36;8.57;;;5.05;;
57573;SDS011;63722;48.858;21.906;2022-12-05T10:31:12;9.25;;;4.38;;
57573;SDS011;63722;48.858;21.906;2022-12-05T10:33:42;12.15;;;4.80;;
57573;SDS011;63722;48.858;21.906;2022-12-05T10:36:12;19.52;;;4.20;;
57573;SDS011;63722;48.858;21.906;2022-12-05T10:38:38;11.25;;;4.38;;
57573;SDS011;63722;48.858;21.906;2022-12-05T10:41:08;12.30;;;4.72;;
57573;SDS011;63722;48.858;21.906;2022-12-05T10:43:37;13.80;;;4.78;;
57573;SDS011;63722;48.858;21.906;2022-12-05T10:46:05;11.43;;;4.57;;
57573;SDS011;63722;48.858;21.906;2022-12-05T10:48:33;13.63;;;4.70;;
57573;SDS011;63722;48.858;21.906;2022-12-05T10:51:01;14.70;;;4.45;;
57573;SDS011;63722;48.858;21.906;2022-12-05T10:53:28;7.15;;;4.43;;
57573;SDS011;63722;48.858;21.906;2022-12-05T10:59:06;11.63;;;4.50;;
57573;SDS011;63722;48.858;21.906;2022-12-05T11:01:33;11.38;;;4.30;;
57573;SDS011;63722;48.858;21.906;2022-12-05T11:04:08;10.77;;;4.20;;
57573;SDS011;63722;48.858;21.906;2022-12-05T11:06:54;9.52;;;3.78;;
57573;SDS011;63722;48.858;21.906;2022-12-05T11:09:31;11.38;;;4.40;;
57573;SDS011;63722;48.858;21.906;2022-12-05T11:14:25;10.25;;;4.50;;
57573;SDS011;63722;48.858;21.906;2022-12-05T11:16:52;9.65;;;3.92;;
57573;SDS011;63722;48.858;21.906;2022-12-05T11:19:24;10.80;;;3.97;;
57573;SDS011;63722;48.858;21.906;2022-12-05T11:24:19;6.65;;;4.10;;
57573;SDS011;63722;48.858;21.906;2022-12-05T11:26:53;9.45;;;4.15;;
57573;SDS011;63722;48.858;21.906;2022-12-05T11:29:37;4.32;;;4.03;;
57573;SDS011;63722;48.858;21.906;2022-12-05T11:32:04;5.80;;;3.45;;
57573;SDS011;63722;48.858;21.906;2022-12-05T11:37:16;9.98;;;4.28;;
57573;SDS011;63722;48.858;21.906;2022-12-05T11:40:16;7.45;;;3.78;;
57573;SDS011;63722;48.858;21.906;2022-12-05T11:48:22;9.85;;;3.63;;
57573;SDS011;63722;48.858;21.906;2022-12-05T11:57:04;11.43;;;3.78;;
57573;SDS011;63722;48.858;21.906;2022-12-05T12:05:29;9.00;;;3.90;;
57573;SDS011;63722;48.858;21.906;2022-12-05T12:08:02;5.35;;;3.53;;
57573;SDS011;63722;48.858;21.906;2022-12-05T12:11:01;7.07;;;4.03;;
57573;SDS011;63722;48.858;21.906;2022-12-05T12:21:33;3.95;;;3.22;;
57573;SDS011;63722;48.858;21.906;2022-12-05T12:35:27;12.18;;;3.92;;
57573;SDS011;63722;48.858;21.906;2022-12-05T12:43:50;21.42;;;5.25;;
57573;SDS011;63722;48.858;21.906;2022-12-05T12:52:12;9.25;;;4.20;;
57573;SDS011;63722;48.858;21.906;2022-12-05T13:05:36;6.03;;;3.80;;
57573;SDS011;63722;48.858;21.906;2022-12-05T13:11:06;16.50;;;4.40;;
57573;SDS011;63722;48.858;21.906;2022-12-05T13:13:42;4.25;;;3.40;;
57573;SDS011;63722;48.858;21.906;2022-12-05T13:16:15;6.97;;;3.60;;
57573;SDS011;63722;48.858;21.906;2022-12-05T13:18:49;5.63;;;3.25;;
57573;SDS011;63722;48.858;21.906;2022-12-05T13:21:14;3.80;;;3.50;;
57573;SDS011;63722;48.858;21.906;2022-12-05T13:23:51;3.60;;;3.15;;
57573;SDS011;63722;48.858;21.906;2022-12-05T13:26:20;4.53;;;3.40;;
57573;SDS011;63722;48.858;21.906;2022-12-05T13:28:58;8.93;;;3.58;;
57573;SDS011;63722;48.858;21.906;2022-12-05T13:31:38;3.38;;;3.05;;
57573;SDS011;63722;48.858;21.906;2022-12-05T13:34:04;4.45;;;3.55;;
57573;SDS011;63722;48.858;21.906;2022-12-05T13:36:37;4.43;;;3.17;;
57573;SDS011;63722;48.858;21.906;2022-12-05T13:39:23;3.25;;;2.75;;
57573;SDS011;63722;48.858;21.906;2022-12-05T13:42:26;7.15;;;2.78;;
57573;SDS011;63722;48.858;21.906;2022-12-05T13:45:17;5.10;;;3.25;;
57573;SDS011;63722;48.858;21.906;2022-12-05T13:52:55;3.65;;;3.17;;
57573;SDS011;63722;48.858;21.906;2022-12-05T14:00:43;3.75;;;3.25;;
57573;SDS011;63722;48.858;21.906;2022-12-05T14:05:59;10.25;;;3.20;;
57573;SDS011;63722;48.858;21.906;2022-12-05T14:15:49;14.10;;;3.65;;
57573;SDS011;63722;48.858;21.906;2022-12-05T14:18:17;8.07;;;3.17;;
57573;SDS011;63722;48.858;21.906;2022-12-05T14:26:42;10.57;;;3.60;;
57573;SDS011;63722;48.858;21.906;2022-12-05T14:29:16;9.25;;;3.38;;
57573;SDS011;63722;48.858;21.906;2022-12-05T14:34:48;9.98;;;3.50;;
57573;SDS011;63722;48.858;21.906;2022-12-05T14:37:27;9.73;;;3.45;;
57573;SDS011;63722;48.858;21.906;2022-12-05T14:39:54;9.23;;;3.08;;
57573;SDS011;63722;48.858;21.906;2022-12-05T14:43:04;15.40;;;3.45;;
57573;SDS011;63722;48.858;21.906;2022-12-05T14:48:04;9.55;;;3.33;;
57573;SDS011;63722;48.858;21.906;2022-12-05T14:50:43;18.02;;;3.97;;
57573;SDS011;63722;48.858;21.906;2022-12-05T14:58:18;8.27;;;3.60;;
57573;SDS011;63722;48.858;21.906;2022-12-05T15:01:06;15.68;;;3.30;;
57573;SDS011;63722;48.858;21.906;2022-12-05T15:03:40;4.78;;;3.30;;
57573;SDS011;63722;48.858;21.906;2022-12-05T15:06:13;6.38;;;3.20;;
57573;SDS011;63722;48.858;21.906;2022-12-05T15:08:43;11.45;;;3.60;;
57573;SDS011;63722;48.858;21.906;2022-12-05T15:11:16;7.57;;;3.10;;
57573;SDS011;63722;48.858;21.906;2022-12-05T15:13:55;8.85;;;3.40;;
57573;SDS011;63722;48.858;21.906;2022-12-05T15:16:28;5.15;;;3.47;;
57573;SDS011;63722;48.858;21.906;2022-12-05T15:18:57;5.88;;;3.05;;
57573;SDS011;63722;48.858;21.906;2022-12-05T15:21:37;5.53;;;3.30;;
57573;SDS011;63722;48.858;21.906;2022-12-05T15:24:16;3.70;;;3.40;;
57573;SDS011;63722;48.858;21.906;2022-12-05T15:26:50;4.38;;;3.22;;
57573;SDS011;63722;48.858;21.906;2022-12-05T15:31:59;5.20;;;2.92;;
57573;SDS011;63722;48.858;21.906;2022-12-05T15:34:32;4.25;;;3.40;;
57573;SDS011;63722;48.858;21.906;2022-12-05T15:37:11;5.93;;;2.90;;
57573;SDS011;63722;48.858;21.906;2022-12-05T15:39:59;3.97;;;3.17;;
57573;SDS011;63722;48.858;21.906;2022-12-05T15:42:41;7.32;;;2.97;;
57573;SDS011;63722;48.858;21.906;2022-12-05T15:45:29;3.75;;;3.08;;
57573;SDS011;63722;48.858;21.906;2022-12-05T15:56:03;5.07;;;3.10;;
57573;SDS011;63722;48.858;21.906;2022-12-05T15:58:45;3.88;;;3.10;;
57573;SDS011;63722;48.858;21.906;2022-12-05T16:01:18;4.20;;;2.65;;
57573;SDS011;63722;48.858;21.906;2022-12-05T16:03:55;3.90;;;2.42;;
57573;SDS011;63722;48.858;21.906;2022-12-05T16:08:53;3.67;;;2.90;;
57573;SDS011;63722;48.858;21.906;2022-12-05T16:11:20;3.40;;;2.97;;
57573;SDS011;63722;48.858;21.906;2022-12-05T16:14:05;3.00;;;2.70;;
57573;SDS011;63722;48.858;21.906;2022-12-05T16:16:33;2.92;;;2.72;;
57573;SDS011;63722;48.858;21.906;2022-12-05T16:19:05;3.70;;;2.75;;
57573;SDS011;63722;48.858;21.906;2022-12-05T16:21:45;2.90;;;2.70;;
57573;SDS011;63722;48.858;21.906;2022-12-05T16:26:55;4.80;;;2.80;;
57573;SDS011;63722;48.858;21.906;2022-12-05T16:29:26;4.28;;;3.10;;
57573;SDS011;63722;48.858;21.906;2022-12-05T16:31:54;3.30;;;2.67;;
57573;SDS011;63722;48.858;21.906;2022-12-05T16:34:22;5.63;;;2.97;;
57573;SDS011;63722;48.858;21.906;2022-12-05T16:36:49;6.50;;;2.80;;
57573;SDS011;63722;48.858;21.906;2022-12-05T16:39:18;4.57;;;2.88;;
57573;SDS011;63722;48.858;21.906;2022-12-05T16:41:44;3.53;;;2.42;;
57573;SDS011;63722;48.858;21.906;2022-12-05T16:46:50;3.00;;;2.70;;
57573;SDS011;63722;48.858;21.906;2022-12-05T16:54:31;7.60;;;2.80;;
57573;SDS011;63722;48.858;21.906;2022-12-05T16:56:57;2.85;;;2.65;;
57573;SDS011;63722;48.858;21.906;2022-12-05T16:59:32;3.30;;;2.58;;
57573;SDS011;63722;48.858;21.906;2022-12-05T17:01:59;2.90;;;2.58;;
57573;SDS011;63722;48.858;21.906;2022-12-05T17:04:26;4.95;;;2.72;;
57573;SDS011;63722;48.858;21.906;2022-12-05T17:06:52;3.13;;;2.92;;
57573;SDS011;63722;48.858;21.906;2022-12-05T17:09:17;3.58;;;2.78;;
57573;SDS011;63722;48.858;21.906;2022-12-05T17:11:43;2.30;;;2.20;;
57573;SDS011;63722;48.858;21.906;2022-12-05T17:14:14;2.58;;;2.38;;
57573;SDS011;63722;48.858;21.906;2022-12-05T17:16:41;3.42;;;2.60;;
57573;SDS011;63722;48.858;21.906;2022-12-05T17:19:08;2.40;;;2.20;;
57573;SDS011;63722;48.858;21.906;2022-12-05T17:21:34;2.67;;;2.47;;
57573;SDS011;63722;48.858;21.906;2022-12-05T17:23:59;3.08;;;2.83;;
57573;SDS011;63722;48.858;21.906;2022-12-05T17:26:25;2.72;;;2.40;;
57573;SDS011;63722;48.858;21.906;2022-12-05T17:28:51;4.55;;;2.75;;
57573;SDS011;63722;48.858;21.906;2022-12-05T17:31:17;6.78;;;3.10;;
57573;SDS011;63722;48.858;21.906;2022-12-05T17:33:45;2.65;;;2.53;;
57573;SDS011;63722;48.858;21.906;2022-12-05T17:36:11;2.67;;;2.47;;
57573;SDS011;63722;48.858;21.906;2022-12-05T17:38:36;2.65;;;2.42;;
57573;SDS011;63722;48.858;21.906;2022-12-05T17:41:02;2.67;;;2.47;;
57573;SDS011;63722;48.858;21.906;2022-12-05T17:43:28;2.88;;;2.67;;
57573;SDS011;63722;48.858;21.906;2022-12-05T17:45:54;2.90;;;2.70;;
57573;SDS011;63722;48.858;21.906;2022-12-05T17:48:19;2.60;;;2.47;;
57573;SDS011;63722;48.858;21.906;2022-12-05T17:50:46;2.80;;;2.60;;
57573;SDS011;63722;48.858;21.906;2022-12-05T17:53:14;3.47;;;2.20;;
57573;SDS011;63722;48.858;21.906;2022-12-05T17:55:42;2.60;;;2.40;;
57573;SDS011;63722;48.858;21.906;2022-12-05T17:58:07;2.60;;;2.50;;
57573;SDS011;63722;48.858;21.906;2022-12-05T18:00:33;3.13;;;2.45;;
57573;SDS011;63722;48.858;21.906;2022-12-05T18:02:59;2.65;;;2.33;;
57573;SDS011;63722;48.858;21.906;2022-12-05T18:05:24;3.00;;;2.60;;
57573;SDS011;63722;48.858;21.906;2022-12-05T18:07:50;2.88;;;2.67;;
57573;SDS011;63722;48.858;21.906;2022-12-05T18:10:19;2.30;;;2.10;;
57573;SDS011;63722;48.858;21.906;2022-12-05T18:12:47;2.35;;;2.15;;
57573;SDS011;63722;48.858;21.906;2022-12-05T18:15:13;2.47;;;2.28;;